메인 페이지
METAR-TAF:

METAR-TAF

공항 :

Duke Field, 플로리다, 미국

위도: 30-39N, 경도: 086-31W, 고도: 59m

현재 날씨관측

예보는 50분 전, 14:56시(UTC)에 발표되었습니다.
무풍
온도 29°C
습도 55%
기압 1019 hPa
시정: 16.1km
맑음

METAR: KEGI 201456Z AUTO 00000KT 10SM CLR 29/19 A3009 RMK AO2 SLP189 T02880194 52009 $

시각: 10:46 (15:46 UTC)

예보

예보는 22 시간 10분 전, 17:36시(UTC)에 발표되었습니다.
예보 대상 시간: 18일 18시부터 19일 23시까지 (UTC)
남남서10kt
시정 10km 이상
고도 4000ft 상공 구름 많음
일시적
18일 18시부터 18일 23시까지 (UTC)
남서12kt, 순간 최대 풍속 17kt
시정: 9000m
고도 4000ft 상공 구름 많음, 적란운.
뇌우, 약한비
전환 중
19일 00시부터 19일 01시까지 (UTC)
남서9kt
시정 10km 이상
고도 2500ft 상공 구름 보통
고도 6000ft 상공 구름 보통
전환 중
19일 14시부터 19일 15시까지 (UTC)
남서7kt
시정 10km 이상
고도 3000ft 상공 구름 조금
전환 중
19일 22시부터 19일 23시까지 (UTC)
남남서7kt
시정: 2114m
고도 8000ft 상공 구름 많음

TAF: KEGI 181736Z 1818/1923 21010KT 9999 BKN040 QNH2985INS TEMPO 1818/1823 22012G17KT 9000 -TSRA BKN040CB BECMG 1900/1901 23009KT 9999 SCT025 SCT060 QNH2980INS BECMG 1914/1915 22007KT 9999 FEW030 QNH2985INS BECMG 1922/1923 20007KT 9999 BKN080 QNH2990INS TX32/1819Z TN24/1907Z LAST NO AMDS AFT 181 NEXT 2114

4,000개 이상의 공항 관측 자료 및 예보 (METAR 및 TAF 보고).

지도상에서 검색 가능한 기상관측소가 노란 점과 빨간 점으로 표시되어 있습니다.

기상관측소 명을 보려면 표시 위로 마우스를 이동하세요.

날씨 관측과 예보를 보려면 클릭하세요.

지도 변경 : 확대하려면 엑스 표시가 있는 녹색 버튼, 축소하려면 빼기 표시가 있는 녹색 버튼, 다음 페이지의 지도를 보려면 녹색 화살표를 클릭하세요.


METAR-TAF: